createdAt,value
2023-01-29T00:03:58.999Z,1.14
2023-01-29T00:09:01.167Z,1.18
2023-01-29T00:14:03.360Z,1.03
2023-01-29T00:19:05.635Z,1.04
2023-01-29T00:24:08.037Z,0.97
2023-01-29T00:29:10.290Z,0.88
2023-01-29T00:34:12.418Z,0.81
2023-01-29T00:39:14.566Z,0.68
2023-01-29T00:44:38.256Z,0.35
2023-01-29T00:49:40.369Z,0.36
2023-01-29T00:54:43.698Z,0.35
2023-01-29T00:59:45.895Z,0.13
2023-01-29T01:04:47.977Z,-0.19
2023-01-29T01:10:08.837Z,-0.42
2023-01-29T01:15:11.015Z,-0.39
2023-01-29T01:20:13.375Z,-0.54
2023-01-29T01:25:16.174Z,-0.51
2023-01-29T01:30:18.598Z,-0.44
2023-01-29T01:35:21.044Z,-0.49
2023-01-29T01:40:25.012Z,-0.58
2023-01-29T01:45:31.396Z,-0.60
2023-01-29T01:50:39.867Z,-0.55
2023-01-29T01:55:47.442Z,-0.78
2023-01-29T02:00:50.140Z,-0.61
2023-01-29T02:06:13.995Z,-0.83
2023-01-29T02:11:16.811Z,-0.61
2023-01-29T02:16:22.419Z,-0.62
2023-01-29T02:21:25.075Z,-0.83
2023-01-29T02:26:48.654Z,-0.95
2023-01-29T02:31:56.081Z,-0.99
2023-01-29T02:37:11.741Z,-1.19
2023-01-29T02:42:30.983Z,-1.20
2023-01-29T02:47:52.467Z,-1.38
2023-01-29T02:53:12.176Z,-1.28
2023-01-29T02:58:22.556Z,-1.20
2023-01-29T03:03:36.236Z,-1.15
2023-01-29T03:08:43.270Z,-1.36
2023-01-29T03:13:59.997Z,-1.27
2023-01-29T03:19:08.533Z,-1.23
2023-01-29T03:24:31.780Z,-0.83
2023-01-29T03:29:55.392Z,-0.51
2023-01-29T03:35:01.785Z,-0.28
2023-01-29T03:40:05.508Z,0.07
2023-01-29T03:45:45.136Z,0.17
2023-01-29T03:51:12.636Z,0.30
2023-01-29T03:56:45.496Z,0.36
2023-01-29T04:01:54.555Z,0.39
2023-01-29T04:07:02.535Z,0.48
2023-01-29T04:12:09.276Z,0.42
2023-01-29T04:17:15.930Z,0.53
2023-01-29T04:22:23.149Z,0.60
2023-01-29T04:27:28.401Z,0.54
2023-01-29T04:32:51.771Z,0.52
2023-01-29T04:38:08.211Z,0.60
2023-01-29T04:43:21.499Z,0.55
2023-01-29T04:48:23.505Z,0.63
2023-01-29T04:53:49.319Z,0.72
2023-01-29T04:59:23.807Z,0.77
2023-01-29T05:04:27.719Z,0.76
2023-01-29T05:09:31.320Z,0.60
2023-01-29T05:14:35.650Z,0.59
2023-01-29T05:19:37.864Z,0.63
2023-01-29T05:24:41.111Z,0.59
2023-01-29T05:29:47.739Z,0.55
2023-01-29T05:34:49.819Z,0.44
2023-01-29T05:39:51.909Z,0.60
2023-01-29T05:44:53.997Z,0.63
2023-01-29T05:49:56.125Z,0.60
2023-01-29T05:54:58.254Z,0.60
2023-01-29T06:00:01.574Z,0.63
2023-01-29T06:05:04.007Z,0.52
2023-01-29T06:10:06.646Z,0.47
2023-01-29T06:15:09.232Z,0.49
2023-01-29T06:20:11.966Z,0.37
2023-01-29T06:25:14.195Z,0.55
2023-01-29T06:30:18.211Z,0.60
2023-01-29T06:35:21.685Z,0.52
2023-01-29T06:40:23.848Z,0.66
2023-01-29T06:45:26.055Z,0.65
2023-01-29T06:50:28.258Z,0.71
2023-01-29T06:55:30.361Z,0.67
2023-01-29T07:00:33.044Z,0.63
2023-01-29T07:05:35.246Z,0.61
2023-01-29T07:10:37.603Z,0.60
2023-01-29T07:15:39.802Z,0.69
2023-01-29T07:20:43.111Z,0.77
2023-01-29T07:25:45.583Z,0.66
2023-01-29T07:30:47.842Z,0.73
2023-01-29T07:35:50.614Z,0.80
2023-01-29T07:40:54.371Z,0.86
2023-01-29T07:46:03.485Z,0.80
2023-01-29T07:51:06.810Z,0.96
2023-01-29T07:56:08.910Z,1.23
2023-01-29T08:01:11.134Z,0.95
2023-01-29T08:06:13.315Z,1.20
2023-01-29T08:11:15.589Z,1.00
2023-01-29T08:16:17.911Z,1.36
2023-01-29T08:21:20.067Z,1.26
2023-01-29T08:26:22.643Z,1.17
2023-01-29T08:31:24.793Z,1.07
2023-01-29T08:36:26.929Z,1.26
2023-01-29T08:41:29.071Z,1.16
2023-01-29T08:46:34.356Z,1.05
2023-01-29T08:51:36.621Z,1.01
2023-01-29T08:56:40.250Z,0.97
2023-01-29T09:01:42.418Z,0.76
2023-01-29T09:06:44.557Z,0.87
2023-01-29T09:11:46.735Z,0.99
2023-01-29T09:16:48.896Z,1.02
2023-01-29T09:21:51.007Z,1.30
2023-01-29T09:26:53.080Z,1.14
2023-01-29T09:31:55.271Z,1.28
2023-01-29T09:36:58.303Z,1.44
2023-01-29T09:42:13.953Z,1.56
2023-01-29T09:47:17.941Z,1.38
2023-01-29T09:52:30.101Z,1.43
2023-01-29T09:57:40.820Z,1.48
2023-01-29T10:02:59.205Z,1.54
2023-01-29T10:08:04.205Z,1.56
2023-01-29T10:13:31.722Z,1.91
2023-01-29T10:18:45.331Z,1.90
2023-01-29T10:23:54.093Z,1.89
2023-01-29T10:28:59.616Z,2.21
2023-01-29T10:34:14.384Z,2.06
2023-01-29T10:39:24.478Z,1.95
2023-01-29T10:44:51.464Z,1.61
2023-01-29T10:50:15.533Z,1.96
2023-01-29T10:55:26.752Z,2.08
2023-01-29T11:00:37.159Z,1.69
2023-01-29T11:06:02.272Z,2.00
2023-01-29T11:11:12.987Z,1.62
2023-01-29T11:16:15.365Z,1.54
2023-01-29T11:21:17.463Z,1.15
2023-01-29T11:26:23.974Z,1.28
2023-01-29T11:31:29.532Z,1.59
2023-01-29T11:36:38.828Z,1.44
2023-01-29T11:42:01.073Z,1.26
2023-01-29T11:47:16.234Z,1.43
2023-01-29T11:52:21.818Z,2.05
2023-01-29T11:57:40.651Z,1.59
2023-01-29T12:02:46.061Z,2.13
2023-01-29T12:07:51.446Z,1.83
2023-01-29T12:13:09.862Z,1.81
2023-01-29T12:18:57.713Z,2.11
2023-01-29T12:24:03.450Z,1.90
2023-01-29T12:29:17.860Z,2.36
2023-01-29T12:34:27.715Z,2.07
2023-01-29T12:39:30.231Z,1.57
2023-01-29T12:44:42.494Z,2.43
2023-01-29T12:49:50.585Z,2.14
2023-01-29T12:55:00.596Z,2.56
2023-01-29T13:00:09.998Z,2.11
2023-01-29T13:05:26.452Z,1.58
2023-01-29T13:10:36.266Z,1.49
2023-01-29T13:15:44.219Z,2.40
2023-01-29T13:20:49.808Z,2.82
2023-01-29T13:25:54.951Z,3.35
2023-01-29T13:31:31.648Z,3.85
2023-01-29T13:36:35.260Z,4.42
2023-01-29T13:41:42.563Z,8.71
2023-01-29T13:46:52.435Z,4.83
2023-01-29T13:51:54.749Z,3.07
2023-01-29T13:57:01.121Z,2.78
2023-01-29T14:02:18.749Z,2.55
2023-01-29T14:07:50.017Z,2.36
2023-01-29T14:13:18.025Z,9.26
2023-01-29T14:18:22.145Z,10.77
2023-01-29T14:23:28.613Z,10.21
2023-01-29T14:28:33.918Z,10.42
2023-01-29T14:33:41.852Z,9.86
2023-01-29T14:38:51.891Z,3.08
2023-01-29T14:44:32.095Z,1.45
2023-01-29T14:49:54.495Z,4.62
2023-01-29T14:55:04.353Z,2.96
2023-01-29T15:00:22.035Z,1.58
2023-01-29T15:05:38.990Z,1.00
2023-01-29T15:10:45.946Z,1.55
2023-01-29T15:15:55.187Z,0.89
2023-01-29T15:21:11.877Z,-0.19
2023-01-29T15:26:19.823Z,-0.65
2023-01-29T15:31:22.392Z,-0.94
2023-01-29T15:36:31.233Z,-1.00
2023-01-29T15:41:33.328Z,-1.13
2023-01-29T15:46:40.052Z,-1.49
2023-01-29T15:51:42.471Z,-1.51
2023-01-29T15:56:51.900Z,-1.56
2023-01-29T16:01:54.271Z,-1.59
2023-01-29T16:07:00.431Z,-1.67
2023-01-29T16:12:03.240Z,-1.70
2023-01-29T16:17:24.178Z,-1.91
2023-01-29T16:22:32.737Z,-1.81
2023-01-29T16:27:35.383Z,-2.03
2023-01-29T16:32:37.593Z,-1.96
2023-01-29T16:37:39.733Z,-1.94
2023-01-29T16:42:42.179Z,-1.79
2023-01-29T16:47:44.367Z,-1.98
2023-01-29T16:53:05.547Z,-1.59
2023-01-29T16:58:17.207Z,-1.61
2023-01-29T17:03:20.132Z,-1.64
2023-01-29T17:08:32.442Z,-1.93
2023-01-29T17:13:45.281Z,-1.87
2023-01-29T17:18:47.365Z,-2.03
2023-01-29T17:23:50.004Z,-1.95
2023-01-29T17:28:53.808Z,-1.92
2023-01-29T17:33:56.145Z,-2.18
2023-01-29T17:38:58.196Z,-2.06
2023-01-29T17:44:00.297Z,-2.16
2023-01-29T17:49:04.473Z,-2.16
2023-01-29T17:54:06.604Z,-2.24
2023-01-29T17:59:19.869Z,-2.21
2023-01-29T18:04:22.240Z,-2.29
2023-01-29T18:09:24.781Z,-2.45
2023-01-29T18:14:26.849Z,-2.34
2023-01-29T18:19:31.256Z,-2.33
2023-01-29T18:24:34.113Z,-2.55
2023-01-29T18:29:36.255Z,-2.66
2023-01-29T18:34:38.438Z,-2.59
2023-01-29T18:39:40.581Z,-2.81
2023-01-29T18:44:42.864Z,-2.74
2023-01-29T18:49:45.350Z,-2.94
2023-01-29T18:54:47.603Z,-2.92
2023-01-29T18:59:49.719Z,-2.86
2023-01-29T19:04:52.054Z,-2.89
2023-01-29T19:09:54.221Z,-2.81
2023-01-29T19:14:59.785Z,-3.13
2023-01-29T19:20:02.351Z,-3.00
2023-01-29T19:25:05.240Z,-2.79
2023-01-29T19:30:08.477Z,-2.89
2023-01-29T19:35:10.629Z,-3.14
2023-01-29T19:40:12.931Z,-3.01
2023-01-29T19:45:15.479Z,-3.09
2023-01-29T19:50:18.114Z,-3.12
2023-01-29T19:55:21.216Z,-3.08
2023-01-29T20:00:23.583Z,-3.25
2023-01-29T20:05:27.266Z,-3.28
2023-01-29T20:10:29.454Z,-3.28
2023-01-29T20:15:32.013Z,-3.26
2023-01-29T20:20:34.094Z,-3.14
2023-01-29T20:25:37.436Z,-3.16
2023-01-29T20:30:41.054Z,-3.16
2023-01-29T20:35:45.124Z,-3.09
2023-01-29T20:40:47.456Z,-3.07
2023-01-29T20:45:49.559Z,-2.79
2023-01-29T20:50:51.880Z,-3.04
2023-01-29T20:55:54.306Z,-3.08
2023-01-29T21:00:56.740Z,-2.99
2023-01-29T21:05:59.287Z,-3.21
2023-01-29T21:11:02.022Z,-3.17
2023-01-29T21:16:04.627Z,-3.19
2023-01-29T21:21:06.808Z,-3.24
2023-01-29T21:26:09.279Z,-3.08
2023-01-29T21:31:14.570Z,-3.09
2023-01-29T21:36:17.080Z,-3.15
2023-01-29T21:41:19.319Z,-3.19
2023-01-29T21:46:21.606Z,-3.20
2023-01-29T21:51:24.231Z,-3.43
2023-01-29T21:56:32.361Z,-3.33
2023-01-29T22:01:37.571Z,-3.42
2023-01-29T22:06:41.023Z,-3.41
2023-01-29T22:11:43.249Z,-3.38
2023-01-29T22:16:50.096Z,-3.40
2023-01-29T22:21:56.329Z,-3.50
2023-01-29T22:26:58.456Z,-3.52
2023-01-29T22:32:00.879Z,-3.13
2023-01-29T22:37:03.087Z,-2.93
2023-01-29T22:42:07.965Z,-3.18
2023-01-29T22:47:10.253Z,-2.89
2023-01-29T22:52:12.400Z,-2.84
2023-01-29T22:57:15.947Z,-2.90
2023-01-29T23:02:18.142Z,-2.82
2023-01-29T23:07:20.321Z,-2.88
2023-01-29T23:12:22.488Z,-2.78
2023-01-29T23:17:24.728Z,-2.88
2023-01-29T23:22:26.970Z,-2.75
2023-01-29T23:27:29.213Z,-2.88
2023-01-29T23:32:33.138Z,-3.06
2023-01-29T23:37:35.383Z,-2.97
2023-01-29T23:42:37.582Z,-3.23
2023-01-29T23:47:39.890Z,-3.33
2023-01-29T23:52:42.215Z,-3.44
2023-01-29T23:57:44.697Z,-3.61
